createdAt,value
2023-04-02T00:00:18.242Z,58.42
2023-04-02T00:03:22.371Z,58.63
2023-04-02T00:06:33.158Z,59.07
2023-04-02T00:09:39.278Z,58.53
2023-04-02T00:13:04.750Z,58.77
2023-04-02T00:16:12.337Z,58.74
2023-04-02T00:19:32.237Z,58.55
2023-04-02T00:22:35.211Z,58.63
2023-04-02T00:25:43.204Z,58.43
2023-04-02T00:28:46.061Z,58.67
2023-04-02T00:31:51.617Z,58.63
2023-04-02T00:34:55.762Z,58.40
2023-04-02T00:37:58.702Z,58.33
2023-04-02T00:41:07.558Z,58.23
2023-04-02T00:44:21.997Z,58.62
2023-04-02T00:47:27.109Z,58.44
2023-04-02T00:50:40.024Z,58.54
2023-04-02T00:53:46.680Z,58.72
2023-04-02T00:56:54.528Z,58.54
2023-04-02T01:00:08.902Z,58.75
2023-04-02T01:03:17.728Z,58.55
2023-04-02T01:06:22.242Z,58.21
2023-04-02T01:09:30.356Z,58.02
2023-04-02T01:12:54.172Z,57.97
2023-04-02T01:16:36.863Z,58.39
2023-04-02T01:20:01.108Z,58.56
2023-04-02T01:23:25.689Z,58.69
2023-04-02T01:26:33.949Z,58.41
2023-04-02T01:29:40.412Z,58.91
2023-04-02T01:32:43.927Z,58.28
2023-04-02T01:35:55.483Z,58.19
2023-04-02T01:39:20.792Z,58.57
2023-04-02T01:42:33.380Z,58.48
2023-04-02T01:45:37.769Z,58.25
2023-04-02T01:48:41.378Z,58.30
2023-04-02T01:51:47.055Z,58.90
2023-04-02T01:54:52.886Z,59.32
2023-04-02T01:57:56.686Z,58.82
2023-04-02T02:01:04.187Z,58.55
2023-04-02T02:04:12.750Z,59.13
2023-04-02T02:07:18.645Z,58.64
2023-04-02T02:10:43.561Z,58.45
2023-04-02T02:13:55.270Z,58.90
2023-04-02T02:17:02.517Z,59.50
2023-04-02T02:20:11.389Z,59.00
2023-04-02T02:23:14.698Z,59.08
2023-04-02T02:26:18.735Z,59.36
2023-04-02T02:29:23.573Z,59.33
2023-04-02T02:32:29.909Z,59.12
2023-04-02T02:36:27.288Z,59.10
2023-04-02T02:39:38.204Z,59.29
2023-04-02T02:42:48.286Z,59.67
2023-04-02T02:45:54.059Z,59.41
2023-04-02T02:48:58.805Z,59.42
2023-04-02T02:52:10.689Z,59.67
2023-04-02T02:55:38.108Z,59.45
2023-04-02T02:58:53.770Z,59.47
2023-04-02T03:02:02.209Z,59.05
2023-04-02T03:05:05.790Z,59.63
2023-04-02T03:08:19.441Z,59.67
2023-04-02T03:11:27.014Z,59.62
2023-04-02T03:14:35.576Z,59.94
2023-04-02T03:17:53.350Z,60.12
2023-04-02T03:21:00.987Z,59.98
2023-04-02T03:24:12.378Z,59.80
2023-04-02T03:27:18.405Z,59.58
2023-04-02T03:30:47.140Z,59.83
2023-04-02T03:34:04.369Z,60.24
2023-04-02T03:37:47.295Z,60.51
2023-04-02T03:41:03.584Z,60.79
2023-04-02T03:44:22.152Z,60.08
2023-04-02T03:47:38.883Z,60.22
2023-04-02T03:50:59.077Z,60.59
2023-04-02T03:54:02.645Z,60.18
2023-04-02T03:57:15.893Z,60.69
2023-04-02T04:00:34.378Z,60.45
2023-04-02T04:03:42.442Z,60.93
2023-04-02T04:06:52.497Z,60.85
2023-04-02T04:09:56.377Z,61.08
2023-04-02T04:13:12.551Z,61.47
2023-04-02T04:16:22.646Z,61.08
2023-04-02T04:19:38.308Z,60.55
2023-04-02T04:22:41.601Z,60.33
2023-04-02T04:26:24.700Z,60.20
2023-04-02T04:29:45.529Z,60.28
2023-04-02T04:33:05.162Z,60.34
2023-04-02T04:36:28.738Z,60.38
2023-04-02T04:40:22.568Z,61.00
2023-04-02T04:43:58.014Z,61.51
2023-04-02T04:47:31.204Z,61.25
2023-04-02T04:50:46.688Z,60.74
2023-04-02T04:53:53.710Z,60.91
2023-04-02T04:57:02.850Z,60.69
2023-04-02T05:00:17.456Z,60.86
2023-04-02T05:03:31.703Z,60.38
2023-04-02T05:06:45.627Z,60.86
2023-04-02T05:10:09.618Z,61.11
2023-04-02T05:13:41.628Z,60.98
2023-04-02T05:17:07.189Z,60.49
2023-04-02T05:20:21.416Z,60.46
2023-04-02T05:24:02.659Z,59.76
2023-04-02T05:27:15.767Z,59.27
2023-04-02T05:30:46.753Z,59.29
2023-04-02T05:33:51.259Z,58.85
2023-04-02T05:36:55.756Z,58.98
2023-04-02T05:40:06.757Z,57.92
2023-04-02T05:43:15.576Z,58.17
2023-04-02T05:46:27.373Z,57.39
2023-04-02T05:49:54.790Z,56.93
2023-04-02T05:53:09.798Z,56.31
2023-04-02T05:56:25.227Z,55.91
2023-04-02T05:59:44.806Z,55.30
2023-04-02T06:03:07.636Z,54.94
2023-04-02T06:06:19.256Z,54.57
2023-04-02T06:09:28.118Z,53.84
2023-04-02T06:12:31.127Z,53.59
2023-04-02T06:15:37.285Z,53.14
2023-04-02T06:18:47.402Z,52.97
2023-04-02T06:21:53.224Z,52.28
2023-04-02T06:25:05.049Z,52.07
2023-04-02T06:28:19.599Z,52.22
2023-04-02T06:31:52.463Z,51.92
2023-04-02T06:34:57.194Z,51.09
2023-04-02T06:38:02.654Z,51.07
2023-04-02T06:41:19.733Z,50.29
2023-04-02T06:44:46.744Z,49.69
2023-04-02T06:48:04.438Z,49.24
2023-04-02T06:51:21.249Z,48.64
2023-04-02T06:54:24.518Z,48.85
2023-04-02T06:57:35.792Z,48.12
2023-04-02T07:00:43.173Z,47.00
2023-04-02T07:03:50.594Z,46.51
2023-04-02T07:07:10.946Z,45.51
2023-04-02T07:10:19.614Z,45.31
2023-04-02T07:13:24.534Z,45.53
2023-04-02T07:16:31.061Z,44.86
2023-04-02T07:19:34.023Z,44.95
2023-04-02T07:22:37.037Z,44.44
2023-04-02T07:25:40.195Z,44.85
2023-04-02T07:28:43.481Z,44.71
2023-04-02T07:31:46.558Z,43.90
2023-04-02T07:34:49.246Z,43.82
2023-04-02T07:37:52.979Z,43.35
2023-04-02T07:40:55.900Z,43.49
2023-04-02T07:43:58.876Z,43.77
2023-04-02T07:47:01.711Z,43.21
2023-04-02T07:50:05.269Z,43.47
2023-04-02T07:53:09.711Z,42.21
2023-04-02T07:56:15.416Z,41.61
2023-04-02T07:59:18.130Z,40.98
2023-04-02T08:02:22.060Z,40.86
2023-04-02T08:05:24.788Z,40.24
2023-04-02T08:08:27.497Z,39.51
2023-04-02T08:11:31.787Z,39.67
2023-04-02T08:14:34.556Z,39.52
2023-04-02T08:17:37.370Z,38.86
2023-04-02T08:20:40.170Z,38.56
2023-04-02T08:23:44.058Z,39.19
2023-04-02T08:26:47.958Z,39.16
2023-04-02T08:29:51.316Z,38.15
2023-04-02T08:32:54.033Z,38.03
2023-04-02T08:35:56.828Z,37.09
2023-04-02T08:38:59.481Z,37.33
2023-04-02T08:42:21.519Z,36.56
2023-04-02T08:45:33.518Z,36.42
2023-04-02T08:48:40.791Z,35.60
2023-04-02T08:51:46.359Z,34.05
2023-04-02T08:54:50.326Z,34.18
2023-04-02T08:58:22.931Z,33.20
2023-04-02T09:02:02.870Z,31.34
2023-04-02T09:05:08.245Z,29.62
2023-04-02T09:08:26.034Z,31.03
2023-04-02T09:11:31.776Z,22.64
2023-04-02T09:15:11.665Z,22.14
2023-04-02T09:18:17.000Z,24.39
2023-04-02T09:21:19.813Z,27.47
2023-04-02T09:24:22.909Z,29.57
2023-04-02T09:27:29.882Z,31.01
2023-04-02T09:30:32.408Z,32.21
2023-04-02T09:33:49.325Z,32.37
2023-04-02T09:36:52.175Z,33.10
2023-04-02T09:40:19.783Z,33.76
2023-04-02T09:43:34.510Z,33.54
2023-04-02T09:46:37.217Z,34.63
2023-04-02T09:49:40.862Z,34.69
2023-04-02T09:52:43.933Z,33.96
2023-04-02T09:55:47.060Z,33.81
2023-04-02T09:59:17.022Z,34.74
2023-04-02T10:02:28.572Z,34.85
2023-04-02T10:05:40.489Z,34.10
2023-04-02T10:08:45.638Z,31.69
2023-04-02T10:11:49.891Z,32.52
2023-04-02T10:14:53.480Z,32.92
2023-04-02T10:18:13.570Z,32.63
2023-04-02T10:21:25.331Z,33.70
2023-04-02T10:24:29.270Z,33.34
2023-04-02T10:27:45.928Z,32.72
2023-04-02T10:31:03.500Z,31.98
2023-04-02T10:34:18.091Z,31.02
2023-04-02T10:37:32.922Z,28.29
2023-04-02T10:40:38.690Z,28.89
2023-04-02T10:43:50.531Z,29.52
2023-04-02T10:47:22.844Z,28.17
2023-04-02T10:50:44.760Z,29.38
2023-04-02T10:53:47.537Z,28.90
2023-04-02T10:56:55.902Z,29.03
2023-04-02T11:00:25.261Z,25.27
2023-04-02T11:03:41.698Z,25.87
2023-04-02T11:06:58.071Z,25.00
2023-04-02T11:10:06.959Z,25.76
2023-04-02T11:13:21.279Z,27.45
2023-04-02T11:16:24.173Z,26.56
2023-04-02T11:19:27.144Z,25.73
2023-04-02T11:22:29.912Z,24.71
2023-04-02T11:25:32.653Z,24.11
2023-04-02T11:28:35.485Z,15.30
2023-04-02T11:31:38.434Z,14.23
2023-04-02T11:34:41.553Z,12.36
2023-04-02T11:37:45.948Z,15.13
2023-04-02T11:40:56.495Z,21.08
2023-04-02T11:44:03.035Z,23.92
2023-04-02T11:47:25.829Z,19.01
2023-04-02T11:50:35.500Z,13.31
2023-04-02T11:53:42.941Z,13.93
2023-04-02T11:56:53.171Z,19.82
2023-04-02T12:00:08.779Z,22.81
2023-04-02T12:03:47.518Z,16.10
2023-04-02T12:07:26.828Z,12.15
2023-04-02T12:10:34.526Z,10.68
2023-04-02T12:13:40.653Z,9.69
2023-04-02T12:16:44.439Z,9.50
2023-04-02T12:19:53.158Z,9.53
2023-04-02T12:22:57.788Z,9.31
2023-04-02T12:26:09.135Z,8.92
2023-04-02T12:29:25.034Z,9.30
2023-04-02T12:32:32.296Z,12.92
2023-04-02T12:35:36.668Z,18.64
2023-04-02T12:38:52.018Z,19.73
2023-04-02T12:41:57.392Z,23.91
2023-04-02T12:45:00.880Z,15.33
2023-04-02T12:48:06.219Z,13.01
2023-04-02T12:51:11.324Z,12.05
2023-04-02T12:54:18.565Z,11.21
2023-04-02T12:57:27.182Z,11.09
2023-04-02T13:00:32.088Z,13.08
2023-04-02T13:03:36.092Z,12.64
2023-04-02T13:06:48.082Z,12.10
2023-04-02T13:09:52.664Z,11.47
2023-04-02T13:12:58.418Z,11.98
2023-04-02T13:16:21.010Z,10.69
2023-04-02T13:19:28.745Z,10.65
2023-04-02T13:22:32.110Z,9.80
2023-04-02T13:25:36.802Z,13.67
2023-04-02T13:28:40.312Z,15.66
2023-04-02T13:31:45.516Z,12.93
2023-04-02T13:34:48.204Z,11.36
2023-04-02T13:37:51.726Z,15.20
2023-04-02T13:40:55.510Z,14.42
2023-04-02T13:44:01.942Z,12.10
2023-04-02T13:47:05.143Z,12.52
2023-04-02T13:50:13.313Z,13.18
2023-04-02T13:53:31.134Z,13.61
2023-04-02T13:56:35.788Z,16.63
2023-04-02T13:59:38.540Z,14.81
2023-04-02T14:02:47.560Z,14.51
2023-04-02T14:06:28.100Z,12.52
2023-04-02T14:10:00.941Z,13.01
2023-04-02T14:13:46.787Z,13.29
2023-04-02T14:17:09.456Z,13.08
2023-04-02T14:20:24.546Z,13.73
2023-04-02T14:23:44.465Z,14.01
2023-04-02T14:26:50.070Z,15.60
2023-04-02T14:30:03.745Z,18.48
2023-04-02T14:33:21.456Z,19.46
2023-04-02T14:36:58.003Z,19.09
2023-04-02T14:40:21.974Z,21.11
2023-04-02T14:43:45.589Z,21.85
2023-04-02T14:46:53.746Z,22.48
2023-04-02T14:50:04.028Z,26.15
2023-04-02T14:53:18.977Z,31.20
2023-04-02T14:56:24.786Z,31.60
2023-04-02T14:59:34.484Z,34.00
2023-04-02T15:02:37.629Z,36.40
2023-04-02T15:05:47.336Z,37.29
2023-04-02T15:09:13.879Z,38.25
2023-04-02T15:12:26.270Z,40.12
2023-04-02T15:16:10.897Z,41.44
2023-04-02T15:19:17.981Z,44.05
2023-04-02T15:22:36.411Z,46.10
2023-04-02T15:25:52.004Z,48.67
2023-04-02T15:29:02.947Z,49.29
2023-04-02T15:32:38.283Z,50.68
2023-04-02T15:35:54.353Z,52.58
2023-04-02T15:39:33.132Z,53.23
2023-04-02T15:42:43.698Z,53.14
2023-04-02T15:46:06.124Z,54.38
2023-04-02T15:49:38.247Z,55.94
2023-04-02T15:53:07.127Z,55.33
2023-04-02T15:56:19.008Z,55.22
2023-04-02T16:00:06.769Z,55.54
2023-04-02T16:03:37.115Z,55.20
2023-04-02T16:07:11.176Z,56.36
2023-04-02T16:10:41.868Z,55.88
2023-04-02T16:13:47.736Z,55.73
2023-04-02T16:16:53.136Z,54.79
2023-04-02T16:20:25.081Z,55.92
2023-04-02T16:23:41.080Z,54.69
2023-04-02T16:26:57.932Z,53.33
2023-04-02T16:30:16.976Z,53.82
2023-04-02T16:33:41.690Z,55.94
2023-04-02T16:36:51.720Z,56.03
2023-04-02T16:40:27.548Z,56.12
2023-04-02T16:43:52.499Z,57.63
2023-04-02T16:47:33.682Z,57.96
2023-04-02T16:50:48.029Z,57.58
2023-04-02T16:54:06.369Z,57.86
2023-04-02T16:57:32.206Z,58.78
2023-04-02T17:00:46.067Z,55.07
2023-04-02T17:04:18.780Z,56.86
2023-04-02T17:07:50.872Z,60.24
2023-04-02T17:11:09.466Z,59.19
2023-04-02T17:14:25.085Z,59.43
2023-04-02T17:17:29.403Z,57.47
2023-04-02T17:20:33.966Z,54.63
2023-04-02T17:24:14.799Z,54.79
2023-04-02T17:27:22.918Z,54.47
2023-04-02T17:30:32.274Z,53.74
2023-04-02T17:33:35.928Z,53.50
2023-04-02T17:36:52.716Z,53.65
2023-04-02T17:40:32.717Z,52.63
2023-04-02T17:43:45.214Z,51.93
2023-04-02T17:46:48.696Z,52.10
2023-04-02T17:50:10.347Z,52.44
2023-04-02T17:53:29.312Z,51.94
2023-04-02T17:57:09.791Z,50.45
2023-04-02T18:00:26.253Z,50.09
2023-04-02T18:03:49.912Z,51.16
2023-04-02T18:07:36.112Z,50.52
2023-04-02T18:10:54.673Z,51.35
2023-04-02T18:14:07.295Z,51.12
2023-04-02T18:17:42.466Z,50.75
2023-04-02T18:21:15.436Z,50.29
2023-04-02T18:24:55.607Z,50.84
2023-04-02T18:28:19.233Z,50.24
2023-04-02T18:31:50.935Z,49.92
2023-04-02T18:35:23.340Z,49.01
2023-04-02T18:38:29.970Z,48.97
2023-04-02T18:42:01.118Z,48.29
2023-04-02T18:45:50.102Z,48.56
2023-04-02T18:49:31.407Z,49.74
2023-04-02T18:52:35.858Z,48.48
2023-04-02T18:55:46.637Z,48.17
2023-04-02T18:59:32.316Z,47.83
2023-04-02T19:02:57.129Z,47.79
2023-04-02T19:06:05.563Z,48.42
2023-04-02T19:09:39.081Z,48.59
2023-04-02T19:12:42.962Z,48.25
2023-04-02T19:16:01.392Z,48.38
2023-04-02T19:19:14.119Z,48.29
2023-04-02T19:22:50.397Z,48.32
2023-04-02T19:26:10.532Z,49.54
2023-04-02T19:29:32.933Z,48.77
2023-04-02T19:33:11.056Z,49.03
2023-04-02T19:36:32.686Z,49.09
2023-04-02T19:39:48.514Z,48.53
2023-04-02T19:42:55.429Z,48.30
2023-04-02T19:46:02.993Z,47.96
2023-04-02T19:49:34.274Z,48.25
2023-04-02T19:52:40.287Z,48.49
2023-04-02T19:55:45.039Z,48.33
2023-04-02T19:58:49.119Z,48.43
2023-04-02T20:01:54.108Z,48.69
2023-04-02T20:04:57.801Z,48.55
2023-04-02T20:08:01.528Z,48.49
2023-04-02T20:11:06.543Z,48.46
2023-04-02T20:14:17.539Z,49.11
2023-04-02T20:17:21.529Z,48.77
2023-04-02T20:20:24.599Z,48.72
2023-04-02T20:23:28.587Z,48.38
2023-04-02T20:26:32.505Z,48.54
2023-04-02T20:29:36.233Z,48.18
2023-04-02T20:32:39.572Z,48.77
2023-04-02T20:35:42.681Z,48.31
2023-04-02T20:38:45.960Z,49.71
2023-04-02T20:41:49.000Z,49.12
2023-04-02T20:44:52.243Z,49.16
2023-04-02T20:47:57.595Z,49.43
2023-04-02T20:55:16.582Z,49.76
2023-04-02T20:58:19.619Z,50.36
2023-04-02T21:01:23.825Z,50.67
2023-04-02T21:04:28.207Z,50.23
2023-04-02T21:07:31.192Z,49.95
2023-04-02T21:10:33.955Z,50.08
2023-04-02T21:13:37.778Z,49.65
2023-04-02T21:16:41.692Z,49.47
2023-04-02T21:19:44.283Z,49.48
2023-04-02T21:22:46.806Z,50.00
2023-04-02T21:26:00.959Z,50.24
2023-04-02T21:29:05.794Z,50.18
2023-04-02T21:32:18.519Z,50.11
2023-04-02T21:35:24.051Z,50.27
2023-04-02T21:38:26.664Z,51.38
2023-04-02T21:41:36.080Z,51.63
2023-04-02T21:44:40.063Z,52.24
2023-04-02T21:47:42.740Z,52.81
2023-04-02T21:50:45.389Z,52.55
2023-04-02T21:53:48.090Z,51.95
2023-04-02T21:56:50.722Z,52.37
2023-04-02T21:59:56.975Z,51.47
2023-04-02T22:02:59.737Z,50.92
2023-04-02T22:06:05.029Z,50.95
2023-04-02T22:09:11.494Z,50.91
2023-04-02T22:12:14.374Z,50.63
2023-04-02T22:15:17.157Z,50.19
2023-04-02T22:18:19.794Z,50.97
2023-04-02T22:21:23.103Z,51.00
2023-04-02T22:24:25.716Z,51.33
2023-04-02T22:27:29.382Z,50.86
2023-04-02T22:30:34.126Z,50.63
2023-04-02T22:33:37.198Z,50.66
2023-04-02T22:36:39.780Z,50.19
2023-04-02T22:39:42.318Z,50.65
2023-04-02T22:42:47.357Z,50.53
2023-04-02T22:45:51.221Z,50.69
2023-04-02T22:48:53.868Z,49.57
2023-04-02T22:51:56.445Z,49.92
2023-04-02T22:54:59.365Z,49.80
2023-04-02T22:58:01.859Z,49.46
2023-04-02T23:01:12.273Z,49.42
2023-04-02T23:04:14.909Z,49.40
2023-04-02T23:07:17.626Z,50.06
2023-04-02T23:10:20.458Z,49.43
2023-04-02T23:13:23.260Z,49.66
2023-04-02T23:16:27.927Z,49.61
2023-04-02T23:19:30.580Z,49.71
2023-04-02T23:22:33.149Z,49.64
2023-04-02T23:25:38.297Z,49.72
2023-04-02T23:28:41.264Z,49.81
2023-04-02T23:31:43.802Z,49.85
2023-04-02T23:34:46.411Z,50.01
2023-04-02T23:37:49.810Z,49.53
2023-04-02T23:40:53.606Z,49.53
2023-04-02T23:43:57.645Z,48.99
2023-04-02T23:47:01.729Z,49.20
2023-04-02T23:50:04.675Z,49.36
2023-04-02T23:53:07.331Z,49.13
2023-04-02T23:56:10.430Z,49.14
2023-04-02T23:59:12.995Z,48.91
